Time;durP1;ratioP1;P1;durP2;ratioP2;P2;SDS_P1;SDS_P2;PMS_P1;PMS_P2;Temp;Humidity;BMP_temperature;BMP_pressure;BME280_temperature;BME280_humidity;BME280_pressure;Samples;Min_cycle;Max_cycle;Signal;HPM_P1;HPM_P2
2022/07/13 00:02:05;;;;;;;1999.90;999.90;;;19.90;99.90;;;;;;5073503;28;20114;-62
2022/07/13 00:04:31;;;;;;;1999.90;999.90;;;19.90;99.90;;;;;;5074756;28;20474;-62
2022/07/13 00:06:57;;;;;;;1999.90;999.90;;;19.90;99.90;;;;;;5072717;28;20101;-62
2022/07/13 00:09:22;;;;;;;1999.90;999.90;;;19.90;99.90;;;;;;5073007;28;20040;-62
2022/07/13 00:11:48;;;;;;;1999.90;999.90;;;19.90;99.90;;;;;;5074698;28;20041;-62
2022/07/13 00:14:14;;;;;;;1999.90;999.90;;;19.90;99.90;;;;;;5074399;28;20551;-62
2022/07/13 00:16:40;;;;;;;1999.90;999.90;;;19.90;99.90;;;;;;5072977;28;20044;-62
2022/07/13 00:19:05;;;;;;;1999.90;999.90;;;19.90;99.90;;;;;;5074609;28;20097;-62
2022/07/13 00:21:31;;;;;;;1999.90;999.90;;;20.00;99.90;;;;;;5074300;28;20387;-62
2022/07/13 00:23:57;;;;;;;1999.90;999.90;;;19.90;99.90;;;;;;5073030;28;20514;-62
2022/07/13 00:26:23;;;;;;;1999.90;999.90;;;19.90;99.90;;;;;;5074139;28;20486;-62
2022/07/13 00:28:48;;;;;;;1999.90;999.90;;;19.90;99.90;;;;;;5074168;28;20051;-62
2022/07/13 00:31:14;;;;;;;1999.90;999.90;;;19.90;99.90;;;;;;5071935;28;20083;-62
2022/07/13 00:33:40;;;;;;;1999.90;999.90;;;19.80;99.90;;;;;;5074172;28;20040;-62
2022/07/13 00:36:06;;;;;;;1999.90;999.90;;;19.80;99.90;;;;;;5055750;28;20450;-62
2022/07/13 00:38:34;;;;;;;1546.00;792.17;;;19.80;99.90;;;;;;5072991;28;20087;-62
2022/07/13 00:41:00;;;;;;;224.77;211.52;;;19.70;99.90;;;;;;5073674;28;20102;-62
2022/07/13 00:43:25;;;;;;;366.30;340.67;;;19.60;99.90;;;;;;5073237;28;20037;-62
2022/07/13 00:45:52;;;;;;;323.42;295.25;;;19.50;99.90;;;;;;5072767;28;20547;-62
2022/07/13 00:48:18;;;;;;;365.92;335.85;;;19.50;99.90;;;;;;5072762;28;20047;-62
2022/07/13 00:50:45;;;;;;;535.22;492.80;;;19.40;99.90;;;;;;5072720;28;20055;-62
2022/07/13 00:53:11;;;;;;;1560.22;803.80;;;19.40;99.90;;;;;;5070684;28;20046;-62
2022/07/13 00:55:38;;;;;;;1999.90;999.90;;;19.40;99.90;;;;;;5073502;28;20119;-62
2022/07/13 00:58:03;;;;;;;1999.90;999.90;;;19.50;99.90;;;;;;5071586;28;20131;-62
2022/07/13 01:00:29;;;;;;;1999.90;999.90;;;19.50;99.90;;;;;;5073314;28;20127;-62
2022/07/13 01:02:55;;;;;;;1999.90;999.90;;;19.50;99.90;;;;;;5071625;28;20123;-62
2022/07/13 01:05:21;;;;;;;1999.90;999.90;;;19.50;99.90;;;;;;5072617;28;20070;-62
2022/07/13 01:07:48;;;;;;;1999.90;999.90;;;19.50;99.90;;;;;;5071689;28;20086;-62
2022/07/13 01:10:13;;;;;;;1999.90;999.90;;;19.50;99.90;;;;;;5073286;28;20105;-62
2022/07/13 01:12:40;;;;;;;1999.90;999.90;;;19.50;99.90;;;;;;5071402;28;20437;-62
2022/07/13 01:15:07;;;;;;;1999.90;999.90;;;19.50;99.90;;;;;;5073042;28;20478;-62
2022/07/13 01:17:35;;;;;;;1999.90;999.90;;;19.60;99.90;;;;;;5071654;28;20155;-62
2022/07/13 01:20:02;;;;;;;1999.90;999.90;;;19.60;99.90;;;;;;5071604;28;20048;-62
2022/07/13 01:22:33;;;;;;;1999.90;999.90;;;19.60;99.90;;;;;;5072644;28;20477;-62
2022/07/13 01:24:59;;;;;;;286.98;266.40;;;19.50;99.90;;;;;;5072985;28;20036;-62
2022/07/13 01:27:25;;;;;;;374.80;349.80;;;19.50;99.90;;;;;;5070894;28;20132;-62
2022/07/13 01:29:51;;;;;;;529.28;491.88;;;19.40;99.90;;;;;;5072820;28;20193;-62
2022/07/13 01:32:17;;;;;;;532.15;493.00;;;19.40;99.90;;;;;;5073107;28;20437;-62
2022/07/13 01:34:43;;;;;;;519.22;469.52;;;19.30;99.90;;;;;;5072218;28;20080;-62
2022/07/13 01:37:10;;;;;;;471.27;427.23;;;19.50;99.90;;;;;;5070896;28;20044;-62
2022/07/13 01:39:35;;;;;;;1595.15;835.00;;;19.40;99.90;;;;;;5072665;28;20048;-62
2022/07/13 01:42:01;;;;;;;1999.90;999.90;;;19.40;99.90;;;;;;5072367;28;20054;-62
2022/07/13 01:44:27;;;;;;;1999.90;999.90;;;19.40;99.90;;;;;;5071401;28;20128;-62
2022/07/13 01:46:53;;;;;;;1999.90;999.90;;;19.40;99.90;;;;;;5072500;28;20059;-62
2022/07/13 01:49:20;;;;;;;1999.90;999.90;;;19.40;99.90;;;;;;5071067;28;20119;-62
2022/07/13 01:51:45;;;;;;;1999.90;999.90;;;19.40;99.90;;;;;;5071275;28;20136;-62
2022/07/13 01:54:13;;;;;;;1999.90;999.90;;;19.60;99.90;;;;;;5070300;28;20066;-62
2022/07/13 01:56:39;;;;;;;1999.90;999.90;;;19.50;99.90;;;;;;5073034;28;20521;-62
2022/07/13 01:59:04;;;;;;;1999.90;999.90;;;19.60;99.90;;;;;;5071247;28;20087;-62
2022/07/13 02:01:30;;;;;;;1999.90;999.90;;;19.60;99.90;;;;;;5070891;28;20076;-62
2022/07/13 02:03:56;;;;;;;1999.90;999.90;;;19.60;99.90;;;;;;5072237;28;20056;-62
2022/07/13 02:06:22;;;;;;;1999.90;999.90;;;19.50;99.90;;;;;;5071054;28;20051;-62
2022/07/13 02:08:47;;;;;;;1555.40;800.60;;;19.50;99.90;;;;;;5070427;28;20402;-61
2022/07/13 02:11:18;;;;;;;1999.90;999.90;;;19.50;99.90;;;;;;5071553;28;20049;-62
2022/07/13 02:13:45;;;;;;;1999.90;999.90;;;19.50;99.90;;;;;;5070566;28;20047;-62
2022/07/13 02:16:13;;;;;;;1999.90;999.90;;;19.60;99.90;;;;;;5071918;28;20074;-62
2022/07/13 02:18:40;;;;;;;1999.90;999.90;;;19.50;99.90;;;;;;5068214;28;20045;-62
2022/07/13 02:21:05;;;;;;;1999.90;999.90;;;19.50;99.90;;;;;;5058036;28;20053;-62
2022/07/13 02:23:32;;;;;;;1999.90;999.90;;;19.50;99.90;;;;;;5071829;28;20080;-62
2022/07/13 02:25:57;;;;;;;1999.90;999.90;;;19.60;99.90;;;;;;5071497;28;20443;-62
2022/07/13 02:28:23;;;;;;;1999.90;999.90;;;19.70;99.90;;;;;;5070916;28;20123;-62
2022/07/13 02:30:50;;;;;;;1999.90;999.90;;;19.70;99.90;;;;;;5072900;28;20097;-61
2022/07/13 02:33:16;;;;;;;1999.90;999.90;;;19.80;99.90;;;;;;5075520;28;20115;-61
2022/07/13 02:35:43;;;;;;;1999.90;999.90;;;19.70;99.90;;;;;;5057823;28;20053;-62
2022/07/13 02:38:09;;;;;;;1999.90;999.90;;;19.90;99.90;;;;;;5074259;28;20044;-62
2022/07/13 02:40:35;;;;;;;1999.90;999.90;;;19.80;99.90;;;;;;5076177;28;20056;-62
2022/07/13 02:43:00;;;;;;;1999.90;999.90;;;20.00;99.90;;;;;;5075723;28;20043;-62
2022/07/13 02:45:26;;;;;;;1999.90;999.90;;;20.00;99.90;;;;;;5074105;28;20052;-62
2022/07/13 02:47:54;;;;;;;1999.90;999.90;;;19.90;99.90;;;;;;5075889;28;20493;-61
2022/07/13 02:50:21;;;;;;;1999.90;999.90;;;19.90;99.90;;;;;;5075444;28;20041;-61
2022/07/13 02:52:46;;;;;;;1999.90;999.90;;;19.90;99.90;;;;;;5075792;28;20055;-61
2022/07/13 02:55:12;;;;;;;1999.90;999.90;;;19.80;99.90;;;;;;5075014;28;20044;-61
2022/07/13 02:57:39;;;;;;;1999.90;999.90;;;19.80;99.90;;;;;;5073526;28;20048;-61
2022/07/13 03:00:08;;;;;;;1999.90;999.90;;;19.90;99.90;;;;;;5074890;28;20048;-61
2022/07/13 03:02:34;;;;;;;1999.90;999.90;;;19.80;99.90;;;;;;5074653;28;20474;-61
2022/07/13 03:05:00;;;;;;;1999.90;999.90;;;19.70;99.90;;;;;;5073362;28;20050;-61
2022/07/13 03:07:26;;;;;;;1999.90;999.90;;;19.70;99.90;;;;;;5074330;28;20044;-61
2022/07/13 03:09:52;;;;;;;1999.90;999.90;;;19.70;99.90;;;;;;5075910;28;20481;-61
2022/07/13 03:12:18;;;;;;;1999.90;999.90;;;19.80;99.90;;;;;;5073872;28;20044;-61
2022/07/13 03:14:44;;;;;;;1999.90;999.90;;;19.80;99.90;;;;;;5073923;28;20082;-61
2022/07/13 03:17:10;;;;;;;1999.90;999.90;;;19.80;99.90;;;;;;5074188;28;20041;-61
2022/07/13 03:19:36;;;;;;;1999.90;999.90;;;19.80;99.90;;;;;;5074934;28;20489;-61
2022/07/13 03:22:04;;;;;;;1999.90;999.90;;;19.70;99.90;;;;;;5073945;28;20075;-61
2022/07/13 03:24:30;;;;;;;1999.90;999.90;;;19.80;99.90;;;;;;5073634;28;20501;-61
2022/07/13 03:26:56;;;;;;;1999.90;999.90;;;19.70;99.90;;;;;;5074707;28;20049;-61
2022/07/13 03:29:22;;;;;;;1999.90;999.90;;;19.80;99.90;;;;;;5073778;28;20488;-61
2022/07/13 03:31:48;;;;;;;1999.90;999.90;;;19.70;99.90;;;;;;5073803;28;20123;-61
2022/07/13 03:34:15;;;;;;;1999.90;999.90;;;19.60;99.90;;;;;;5073378;28;20175;-61
2022/07/13 03:36:42;;;;;;;1999.90;999.90;;;19.70;99.90;;;;;;5073790;28;20110;-61
2022/07/13 03:39:07;;;;;;;1999.90;999.90;;;19.70;99.90;;;;;;5075210;28;20470;-61
2022/07/13 03:41:33;;;;;;;1999.90;999.90;;;19.70;99.90;;;;;;5071689;28;20048;-61
2022/07/13 03:44:02;;;;;;;1999.90;999.90;;;19.60;99.90;;;;;;5073090;28;20036;-61
2022/07/13 03:46:27;;;;;;;1999.90;999.90;;;19.70;99.90;;;;;;5074137;28;20501;-62
2022/07/13 03:48:53;;;;;;;1999.90;999.90;;;19.70;99.90;;;;;;5072612;28;20822;-61
2022/07/13 03:51:19;;;;;;;1999.90;999.90;;;19.60;99.90;;;;;;5073427;28;20067;-61
2022/07/13 03:53:45;;;;;;;1999.90;999.90;;;19.70;99.90;;;;;;5073094;28;20127;-61
2022/07/13 03:56:11;;;;;;;1999.90;999.90;;;19.60;99.90;;;;;;5073804;28;20039;-61
2022/07/13 03:58:37;;;;;;;1999.90;999.90;;;19.60;99.90;;;;;;5074048;28;20417;-61
2022/07/13 04:01:03;;;;;;;1653.50;891.47;;;19.60;99.90;;;;;;5072622;28;20040;-61
2022/07/13 04:03:29;;;;;;;292.85;273.55;;;19.60;99.90;;;;;;5073571;28;20427;-61
2022/07/13 04:05:55;;;;;;;1999.90;999.90;;;19.50;99.90;;;;;;5073283;28;20044;-61
2022/07/13 04:08:21;;;;;;;1610.18;852.03;;;19.50;99.90;;;;;;5072435;28;20040;-61
2022/07/13 04:10:47;;;;;;;430.08;408.30;;;19.50;99.90;;;;;;5073617;28;20040;-61
2022/07/13 04:13:15;;;;;;;743.78;686.83;;;19.40;99.90;;;;;;5036155;28;20449;-61
2022/07/13 04:15:40;;;;;;;696.72;651.67;;;19.40;99.90;;;;;;5055006;28;20090;-61
2022/07/13 04:18:07;;;;;;;632.78;594.70;;;19.40;99.90;;;;;;5073106;28;20390;-61
2022/07/13 04:20:34;;;;;;;554.60;523.55;;;19.40;99.90;;;;;;5072817;28;20037;-61
2022/07/13 04:23:00;;;;;;;628.47;590.85;;;19.40;99.90;;;;;;5055453;28;20063;-61
2022/07/13 04:25:26;;;;;;;1612.47;854.33;;;19.40;99.90;;;;;;5072938;28;20051;-61
2022/07/13 04:27:55;;;;;;;606.00;570.00;;;19.40;99.90;;;;;;5072651;28;20052;-61
2022/07/13 04:30:20;;;;;;;512.25;484.50;;;19.40;99.90;;;;;;5055431;28;20048;-61
2022/07/13 04:32:47;;;;;;;598.70;563.35;;;19.30;99.90;;;;;;5073105;28;20468;-61
2022/07/13 04:35:15;;;;;;;435.33;413.73;;;19.40;99.90;;;;;;5072203;28;20090;-61
2022/07/13 04:37:44;;;;;;;498.73;471.85;;;19.50;99.90;;;;;;5073439;28;20052;-61
2022/07/13 04:40:11;;;;;;;566.75;534.85;;;19.40;99.90;;;;;;5055722;28;20094;-61
2022/07/13 04:42:37;;;;;;;508.45;481.25;;;19.40;99.90;;;;;;5071939;28;20080;-61
2022/07/13 04:45:03;;;;;;;526.10;497.27;;;19.50;99.90;;;;;;5072041;28;20072;-61
2022/07/13 04:47:29;;;;;;;484.73;459.20;;;19.40;99.90;;;;;;5072642;28;20043;-61
2022/07/13 04:49:56;;;;;;;474.42;449.88;;;19.40;99.90;;;;;;5072000;28;20040;-62
2022/07/13 04:52:21;;;;;;;513.35;484.25;;;19.50;99.90;;;;;;5071510;28;20559;-61
2022/07/13 04:54:48;;;;;;;532.13;503.00;;;19.30;99.90;;;;;;5055358;28;20040;-61
2022/07/13 04:57:14;;;;;;;566.28;533.75;;;19.50;99.90;;;;;;5070681;28;20051;-61
2022/07/13 04:59:40;;;;;;;625.92;588.55;;;19.40;99.90;;;;;;5071675;28;20048;-61
2022/07/13 05:02:05;;;;;;;617.45;579.00;;;19.20;99.90;;;;;;5071514;28;20059;-61
2022/07/13 05:04:31;;;;;;;553.15;521.65;;;19.40;99.90;;;;;;5070500;28;20387;-61
2022/07/13 05:06:57;;;;;;;533.78;503.02;;;19.40;99.90;;;;;;5072287;28;20099;-61
2022/07/13 05:09:23;;;;;;;576.63;543.83;;;19.40;99.90;;;;;;5072054;28;20060;-61
2022/07/13 05:11:49;;;;;;;506.77;480.17;;;19.40;99.90;;;;;;5072452;28;20086;-61
2022/07/13 05:14:15;;;;;;;509.98;482.73;;;19.50;99.90;;;;;;5071554;28;20059;-61
2022/07/13 05:16:41;;;;;;;485.48;460.55;;;19.30;99.90;;;;;;5055351;28;20494;-61
2022/07/13 05:19:07;;;;;;;473.10;448.40;;;19.50;99.90;;;;;;5070531;28;20036;-61
2022/07/13 05:21:37;;;;;;;516.88;488.58;;;19.60;99.90;;;;;;5072230;28;20405;-61
2022/07/13 05:24:04;;;;;;;502.92;475.63;;;19.60;99.90;;;;;;5071653;28;20102;-61
2022/07/13 05:26:30;;;;;;;428.02;406.45;;;19.60;99.90;;;;;;5070318;28;20052;-61
2022/07/13 05:28:56;;;;;;;455.38;431.90;;;19.70;99.90;;;;;;5072042;28;20097;-61
2022/07/13 05:31:22;;;;;;;539.20;509.45;;;19.50;99.90;;;;;;5072035;28;20105;-62
2022/07/13 05:33:48;;;;;;;436.75;414.98;;;19.70;99.90;;;;;;5072305;28;20518;-62
2022/07/13 05:36:18;;;;;;;470.90;445.77;;;19.70;99.90;;;;;;5054913;28;20051;-62
2022/07/13 05:38:46;;;;;;;419.52;398.15;;;19.90;99.90;;;;;;5071671;28;20055;-62
2022/07/13 05:41:12;;;;;;;429.23;407.20;;;19.60;99.90;;;;;;5066689;28;20056;-62
2022/07/13 05:43:40;;;;;;;485.75;458.73;;;19.80;99.90;;;;;;5051778;28;20052;-62
2022/07/13 05:46:07;;;;;;;444.75;422.45;;;19.80;99.90;;;;;;5071564;28;20460;-62
2022/07/13 05:48:35;;;;;;;498.48;472.38;;;19.80;99.90;;;;;;5053820;28;20390;-62
2022/07/13 05:51:01;;;;;;;432.23;411.17;;;19.80;99.90;;;;;;5071630;28;20063;-62
2022/07/13 05:53:27;;;;;;;508.80;482.17;;;19.90;99.90;;;;;;5070739;28;20076;-61
2022/07/13 05:55:53;;;;;;;440.42;418.60;;;19.80;99.90;;;;;;5070805;28;20252;-62
2022/07/13 05:58:20;;;;;;;439.92;418.40;;;19.90;99.90;;;;;;5072407;28;20059;-62
2022/07/13 06:00:46;;;;;;;417.48;396.95;;;20.00;99.90;;;;;;5071881;28;20640;-61
2022/07/13 06:03:12;;;;;;;446.05;424.10;;;20.10;99.90;;;;;;5071865;28;20057;-62
2022/07/13 06:05:39;;;;;;;437.33;415.00;;;20.10;99.90;;;;;;5070748;28;20113;-61
2022/07/13 06:08:05;;;;;;;380.75;362.92;;;20.20;99.90;;;;;;5071422;28;20044;-62
2022/07/13 06:10:30;;;;;;;456.73;434.23;;;20.20;99.90;;;;;;5071947;28;20094;-62
2022/07/13 06:12:56;;;;;;;405.17;386.13;;;20.10;99.90;;;;;;5070158;28;20056;-61
2022/07/13 06:15:22;;;;;;;442.20;420.67;;;20.20;99.90;;;;;;5052027;28;20128;-61
2022/07/13 06:17:48;;;;;;;465.50;442.25;;;20.20;99.90;;;;;;5052142;28;20059;-62
2022/07/13 06:20:13;;;;;;;381.35;363.25;;;20.30;99.90;;;;;;5060785;28;20085;-61
2022/07/13 06:22:39;;;;;;;434.60;413.27;;;20.20;99.90;;;;;;5071540;28;20079;-61
2022/07/13 06:25:06;;;;;;;439.95;418.55;;;20.40;99.90;;;;;;5071706;28;20044;-61
2022/07/13 06:27:32;;;;;;;413.52;393.73;;;20.40;99.90;;;;;;5072335;28;20049;-61
2022/07/13 06:29:58;;;;;;;535.97;507.20;;;20.50;99.90;;;;;;5071532;28;20041;-61
2022/07/13 06:32:23;;;;;;;432.85;411.50;;;20.40;99.90;;;;;;5072014;28;20059;-61
2022/07/13 06:34:49;;;;;;;430.98;409.92;;;20.60;99.90;;;;;;5072693;28;20040;-61
2022/07/13 06:37:15;;;;;;;468.02;444.73;;;20.30;99.90;;;;;;5071451;28;20079;-62
2022/07/13 06:39:41;;;;;;;493.85;468.52;;;20.50;99.90;;;;;;5070323;28;20045;-62
2022/07/13 06:42:09;;;;;;;470.27;446.40;;;20.40;99.90;;;;;;5054665;28;20056;-61
2022/07/13 06:44:35;;;;;;;487.58;462.13;;;20.60;99.90;;;;;;5068260;28;20044;-61
2022/07/13 06:47:00;;;;;;;471.85;446.52;;;20.70;99.90;;;;;;5071795;28;20051;-61
2022/07/13 06:49:27;;;;;;;457.42;433.23;;;20.50;99.90;;;;;;5071749;28;20041;-61
2022/07/13 06:51:55;;;;;;;465.20;440.90;;;20.80;99.90;;;;;;5070996;28;20419;-61
2022/07/13 06:54:21;;;;;;;449.33;423.25;;;20.80;99.90;;;;;;5071921;28;20048;-61
2022/07/13 06:56:46;;;;;;;473.90;448.08;;;21.10;99.90;;;;;;5069179;28;20049;-61
2022/07/13 06:59:12;;;;;;;342.55;323.25;;;20.80;99.90;;;;;;5072417;28;20036;-61
2022/07/13 07:01:38;;;;;;;389.55;367.38;;;20.90;99.90;;;;;;5072073;28;20076;-61
2022/07/13 07:04:04;;;;;;;461.70;434.42;;;21.10;99.90;;;;;;5069725;28;20486;-61
2022/07/13 07:06:30;;;;;;;458.45;429.25;;;21.00;99.90;;;;;;5071147;28;20056;-61
2022/07/13 07:08:58;;;;;;;283.35;265.58;;;21.20;99.90;;;;;;5071468;28;20044;-62
2022/07/13 07:11:24;;;;;;;1549.28;796.30;;;21.30;99.90;;;;;;5070776;28;20052;-61
2022/07/13 07:13:50;;;;;;;1999.90;999.90;;;21.40;99.90;;;;;;5071771;28;20095;-61
2022/07/13 07:16:16;;;;;;;1999.90;999.90;;;21.50;99.90;;;;;;5072491;28;20510;-61
2022/07/13 07:18:42;;;;;;;1999.90;999.90;;;21.60;99.90;;;;;;5074535;28;20036;-61
2022/07/13 07:21:07;;;;;;;1999.90;999.90;;;21.80;99.90;;;;;;5075505;28;20040;-61
2022/07/13 07:23:33;;;;;;;1999.90;999.90;;;21.90;99.90;;;;;;5075262;28;20051;-61
2022/07/13 07:25:59;;;;;;;1999.90;999.90;;;22.00;99.90;;;;;;5074257;28;20044;-61
2022/07/13 07:28:24;;;;;;;1999.90;999.90;;;22.10;99.90;;;;;;5074939;28;20060;-61
2022/07/13 07:30:51;;;;;;;1999.90;999.90;;;22.20;99.90;;;;;;5074605;28;20040;-62
2022/07/13 07:33:17;;;;;;;1999.90;999.90;;;22.30;99.90;;;;;;5073721;28;20036;-61
2022/07/13 07:35:43;;;;;;;1999.90;999.90;;;22.40;99.90;;;;;;5071887;28;20102;-61
2022/07/13 07:38:09;;;;;;;1999.90;999.90;;;22.50;99.90;;;;;;5074880;28;20486;-62
2022/07/13 07:40:34;;;;;;;1999.90;999.90;;;22.60;99.90;;;;;;5072817;28;20056;-62
2022/07/13 07:43:00;;;;;;;1999.90;999.90;;;22.80;99.90;;;;;;5075087;28;20048;-62
2022/07/13 07:45:26;;;;;;;1999.90;999.90;;;22.90;99.90;;;;;;5075092;28;20049;-62
2022/07/13 07:47:52;;;;;;;1999.90;999.90;;;23.00;99.90;;;;;;5061921;28;20037;-61
2022/07/13 07:50:18;;;;;;;1999.90;999.90;;;23.10;99.90;;;;;;5062771;28;20049;-61
2022/07/13 07:52:43;;;;;;;1999.90;999.90;;;23.10;99.90;;;;;;5054144;28;20044;-61
2022/07/13 07:55:09;;;;;;;1610.80;853.30;;;23.10;99.90;;;;;;5064449;28;20040;-61
2022/07/13 07:57:47;;;;;;;1999.90;999.90;;;23.20;99.90;;;;;;5074284;28;20040;-61
2022/07/13 08:00:14;;;;;;;418.35;391.90;;;23.20;99.90;;;;;;5069314;28;20053;-61
2022/07/13 08:02:40;;;;;;;434.60;406.67;;;23.30;99.90;;;;;;5073384;28;20040;-62
2022/07/13 08:05:08;;;;;;;618.47;581.50;;;23.40;99.90;;;;;;5074249;28;20052;-62
2022/07/13 08:07:37;;;;;;;587.42;553.28;;;23.50;99.90;;;;;;5073289;28;20124;-61
2022/07/13 08:10:03;;;;;;;619.75;582.78;;;23.50;99.90;;;;;;5071788;28;20048;-62
2022/07/13 08:12:29;;;;;;;649.53;610.15;;;23.50;99.90;;;;;;5059333;28;20105;-62
2022/07/13 08:14:55;;;;;;;628.88;590.85;;;23.60;99.90;;;;;;5072768;28;20040;-61
2022/07/13 08:17:21;;;;;;;708.80;662.45;;;23.70;99.90;;;;;;5073389;28;20393;-62
2022/07/13 08:19:46;;;;;;;593.10;554.58;;;23.70;99.90;;;;;;5074177;28;20647;-61
2022/07/13 08:22:12;;;;;;;599.33;564.33;;;23.80;99.90;;;;;;5073607;28;20082;-62
2022/07/13 08:24:38;;;;;;;598.97;563.30;;;23.80;99.90;;;;;;5072881;28;20055;-62
2022/07/13 08:27:04;;;;;;;740.50;691.40;;;23.80;99.90;;;;;;5072567;28;20061;-62
2022/07/13 08:29:29;;;;;;;747.55;695.67;;;24.00;99.90;;;;;;5073056;28;20044;-61
2022/07/13 08:31:55;;;;;;;697.22;653.15;;;24.10;99.90;;;;;;5073335;28;20120;-61
2022/07/13 08:39:50;;;;;;;654.05;613.78;;;24.20;99.90;;;;;;5071426;28;20041;-62
2022/07/13 08:42:16;;;;;;;780.20;727.05;;;24.30;99.90;;;;;;5062214;28;20262;-62
2022/07/13 08:44:42;;;;;;;794.95;741.08;;;24.40;99.90;;;;;;5065389;28;20040;-62
2022/07/13 08:47:09;;;;;;;740.83;692.85;;;24.40;99.90;;;;;;5073195;28;20077;-61
2022/07/13 08:49:35;;;;;;;724.45;678.33;;;24.60;99.90;;;;;;5073065;28;20049;-61
2022/07/13 08:52:01;;;;;;;981.17;903.13;;;24.70;99.90;;;;;;5073173;28;20398;-61
2022/07/13 08:54:29;;;;;;;827.25;769.05;;;24.80;99.90;;;;;;5072884;28;20076;-61
2022/07/13 08:56:55;;;;;;;770.92;720.90;;;24.90;99.90;;;;;;5072554;28;20041;-61
2022/07/13 08:59:21;;;;;;;797.72;744.35;;;24.90;99.90;;;;;;5072518;28;20036;-61
2022/07/13 09:01:49;;;;;;;677.88;635.67;;;25.00;99.90;;;;;;5072147;28;20075;-62
2022/07/13 09:04:14;;;;;;;735.53;688.67;;;25.00;99.90;;;;;;5072196;28;20032;-62
2022/07/13 09:06:44;;;;;;;770.97;720.58;;;25.10;99.90;;;;;;5073125;28;20367;-61
2022/07/13 09:09:27;;;;;;;836.42;778.67;;;25.20;99.90;;;;;;5068466;28;20036;-61
2022/07/13 09:11:52;;;;;;;;;;;25.20;99.90;;;;;;5071063;28;20045;-61
2022/07/13 09:14:25;;;;;;;1205.43;688.65;;;25.20;99.90;;;;;;5073242;28;19974;-61
2022/07/13 09:16:52;;;;;;;1999.90;999.90;;;25.20;99.90;;;;;;5071990;28;20051;-61
2022/07/13 09:19:18;;;;;;;627.97;582.90;;;25.30;99.90;;;;;;5063898;28;20041;-62
2022/07/13 09:21:44;;;;;;;1999.90;999.90;;;25.30;99.90;;;;;;5073091;28;20041;-62
2022/07/13 09:24:09;;;;;;;1999.90;999.90;;;25.40;99.90;;;;;;5072056;28;20393;-61
2022/07/13 09:26:41;;;;;;;789.22;734.17;;;25.40;99.90;;;;;;5071899;28;20049;-61
2022/07/13 09:29:07;;;;;;;1999.90;999.90;;;25.50;99.90;;;;;;5066042;28;20041;-61
2022/07/13 09:31:50;;;;;;;783.53;728.72;;;25.60;99.90;;;;;;5062459;28;20064;-61
2022/07/13 09:34:16;;;;;;;1999.90;999.90;;;25.70;99.90;;;;;;5066303;28;20462;-62
2022/07/13 09:36:42;;;;;;;1568.72;813.50;;;25.80;99.90;;;;;;5072476;28;20057;-62
2022/07/13 09:39:09;;;;;;;812.03;756.28;;;25.80;99.90;;;;;;5070149;28;20076;-62
2022/07/13 09:41:35;;;;;;;679.80;638.60;;;25.90;99.90;;;;;;5072236;28;20056;-61
2022/07/13 09:47:04;;;;;;;547.15;517.30;;;26.20;99.90;;;;;;5078530;28;20127;-62
2022/07/13 09:49:41;;;;;;;639.33;601.95;;;26.20;99.90;;;;;;5069636;28;20048;-61
2022/07/13 09:52:10;;;;;;;612.38;577.15;;;26.20;99.90;;;;;;5068935;28;20048;-61
2022/07/13 09:54:40;;;;;;;720.00;673.17;;;26.30;99.90;;;;;;5072004;28;20048;-62
2022/07/13 09:57:09;;;;;;;555.58;519.38;;;26.40;99.90;;;;;;5072863;28;20045;-62
2022/07/13 09:59:35;;;;;;;448.05;416.60;;;26.40;99.90;;;;;;5069734;28;20101;-62
2022/07/13 10:02:03;;;;;;;1564.30;809.17;;;26.40;99.10;;;;;;5071906;28;20048;-62
2022/07/13 10:04:32;;;;;;;1999.90;999.90;;;26.40;99.90;;;;;;5072135;28;20082;-61
2022/07/13 10:06:59;;;;;;;1999.90;999.90;;;26.40;99.20;;;;;;5070549;28;20061;-62
2022/07/13 10:09:32;;;;;;;1999.90;999.90;;;26.40;99.10;;;;;;5070653;28;20078;-62
2022/07/13 10:11:59;;;;;;;469.45;442.10;;;26.40;99.60;;;;;;5085431;28;20084;-61
2022/07/13 10:14:27;;;;;;;525.50;495.02;;;26.40;99.80;;;;;;5068595;28;20045;-62
2022/07/13 10:17:06;;;;;;;1999.90;999.90;;;26.50;99.90;;;;;;5062511;28;20065;-62
2022/07/13 10:19:34;;;;;;;343.92;325.23;;;26.60;98.50;;;;;;5053895;28;20483;-62
2022/07/13 10:22:11;;;;;;;1558.40;804.67;;;26.60;98.70;;;;;;5051148;28;20053;-62
2022/07/13 10:24:37;;;;;;;1586.38;832.15;;;26.70;98.40;;;;;;5068120;28;20486;-62
2022/07/13 10:27:26;;;;;;;1999.90;999.90;;;26.70;96.30;;;;;;5071900;28;20040;-62
2022/07/13 10:29:57;;;;;;;1187.18;677.70;;;26.70;96.40;;;;;;5071040;28;20044;-62
2022/07/13 10:32:27;;;;;;;473.73;449.77;;;26.70;96.00;;;;;;5072162;28;20047;-62
2022/07/13 10:35:00;;;;;;;1175.72;666.55;;;26.80;96.60;;;;;;5071648;28;20809;-62
2022/07/13 10:37:26;;;;;;;;;;;27.00;95.30;;;;;;5071958;28;20044;-62
2022/07/13 10:40:15;;;;;;;354.98;338.20;;;27.10;93.60;;;;;;5072194;28;20427;-62
2022/07/13 10:42:53;;;;;;;253.45;242.68;;;27.20;94.80;;;;;;5071370;28;20131;-62
2022/07/13 10:45:32;;;;;;;297.92;284.38;;;27.50;93.70;;;;;;5071045;28;20040;-62
2022/07/13 10:47:59;;;;;;;375.05;357.30;;;27.80;92.30;;;;;;5070402;28;20140;-62
2022/07/13 10:50:26;;;;;;;382.90;365.15;;;28.00;90.00;;;;;;5056737;28;20032;-62
2022/07/13 10:52:52;;;;;;;306.65;293.00;;;28.30;90.20;;;;;;5074490;28;20048;-62
2022/07/13 10:55:19;;;;;;;327.85;313.25;;;28.50;88.30;;;;;;5075309;28;20112;-62
2022/07/13 10:57:46;;;;;;;396.83;378.08;;;28.70;82.30;;;;;;5074925;28;20040;-62
2022/07/13 11:00:19;;;;;;;361.38;344.88;;;28.70;81.40;;;;;;5074405;28;20040;-62
2022/07/13 11:02:50;;;;;;;463.00;440.23;;;28.70;83.30;;;;;;5073903;28;20048;-62
2022/07/13 11:05:23;;;;;;;362.48;345.80;;;28.70;82.20;;;;;;5073280;28;20036;-62
2022/07/13 11:07:50;;;;;;;368.80;351.67;;;28.70;85.00;;;;;;5071747;28;20055;-62
2022/07/13 11:10:22;;;;;;;449.80;428.52;;;28.80;84.10;;;;;;5071980;28;20113;-62
2022/07/13 11:13:09;;;;;;;393.95;375.48;;;28.70;78.00;;;;;;5075098;28;20502;-62
2022/07/13 11:15:47;;;;;;;367.13;350.70;;;28.60;80.30;;;;;;5074922;28;20051;-62
2022/07/13 11:18:22;;;;;;;360.65;344.15;;;28.40;79.80;;;;;;5074580;28;20044;-62
2022/07/13 11:20:57;;;;;;;353.00;336.95;;;28.40;80.60;;;;;;5074646;28;20048;-62
2022/07/13 11:26:33;;;;;;;373.05;355.67;;;28.40;81.30;;;;;;5072289;28;20037;-62
2022/07/13 11:29:18;;;;;;;394.08;375.63;;;28.70;79.70;;;;;;5071404;28;20040;-62
2022/07/13 11:31:45;;;;;;;364.20;347.48;;;28.70;76.90;;;;;;5072476;28;20029;-62
2022/07/13 11:34:11;;;;;;;453.40;431.52;;;28.70;77.20;;;;;;5054243;28;20049;-62
2022/07/13 11:36:41;;;;;;;451.50;429.05;;;28.90;79.20;;;;;;5055018;28;20059;-62
2022/07/13 11:39:22;;;;;;;412.48;392.60;;;28.90;78.80;;;;;;5065641;28;20083;-62
2022/07/13 11:41:48;;;;;;;538.35;508.98;;;28.80;81.20;;;;;;5067590;28;20079;-62
2022/07/13 11:44:14;;;;;;;411.88;391.90;;;28.70;78.20;;;;;;5072795;28;20502;-62
2022/07/13 11:46:40;;;;;;;443.33;421.45;;;28.30;78.60;;;;;;5072877;28;20052;-62
2022/07/13 11:49:06;;;;;;;353.77;337.95;;;27.90;81.50;;;;;;5074232;28;20048;-62
2022/07/13 11:51:32;;;;;;;474.83;451.55;;;27.90;86.10;;;;;;5074021;28;20436;-62
2022/07/13 11:54:08;;;;;;;367.70;350.80;;;27.90;84.30;;;;;;5073301;28;20048;-62
2022/07/13 11:56:34;;;;;;;386.08;368.17;;;27.80;85.80;;;;;;5073765;28;20048;-62
2022/07/13 11:59:00;;;;;;;399.58;380.13;;;27.90;85.80;;;;;;5073427;28;20041;-62
2022/07/13 12:01:25;;;;;;;405.60;386.23;;;27.70;86.00;;;;;;5074393;28;20093;-62
2022/07/13 12:03:51;;;;;;;468.65;444.13;;;27.70;86.90;;;;;;5072939;28;20041;-62
2022/07/13 12:06:18;;;;;;;419.88;397.13;;;27.80;90.00;;;;;;5072527;28;20098;-62
2022/07/13 12:08:46;;;;;;;528.60;498.92;;;27.80;90.40;;;;;;5073978;28;20071;-62
2022/07/13 12:11:15;;;;;;;490.77;464.75;;;27.90;91.60;;;;;;5074321;28;20044;-62
2022/07/13 12:13:42;;;;;;;1230.22;716.20;;;28.00;91.20;;;;;;5072575;28;20529;-62
2022/07/13 12:16:13;;;;;;;542.58;510.45;;;28.20;91.60;;;;;;5074373;28;20560;-62
2022/07/13 12:19:01;;;;;;;706.78;662.47;;;28.20;92.10;;;;;;5070898;28;20033;-62